Startpagina
METAR-TAF:

METAR-TAF

Vliegvelden :

Sharurah, Saoedi-Arabië

breedte: 17-28N, lengte: 047-07E, hoogte: 720 m

Actueel weer

Dit bericht is 23 minuten geleden gemaakt, om 09:00 UTC
Wind 14 kt uit het noordnoordwesten
Temperatuur 41°C
Vochtigheid 10%
Druk 1004 hPa
Zicht: 3000 m
Stuifstof,

METAR: OESH 250900Z 33014KT 3000 BLDU NSC 41/03 Q1004 NOSIG

Tijdstip: 12:23 (09:23 UTC)

Verwachting

Dit bericht is 10 uur en het 23 minuten geleden gemaakt, om 23:00 UTC
Verwachting geldig van 25 om 00 UTC tot 26 om 06 UTC
Wind 6 kt uit het westen
Zicht: 7000 m
Weinig wolken op 4000 ft
Wijzigt naar
van 25 om 04 UTC tot 25 om 06 UTC
Wind 20 kt uit het noordnoordwesten
Tijdelijke
van 25 om 04 UTC tot 25 om 14 UTC
Zicht: 3000 m
Stuifstof
Wijzigt naar
van 25 om 18 UTC tot 25 om 20 UTC
Wind 6 kt uit het westnoordwesten

TAF: OESH 242300Z 2500/2606 27006KT 7000 FEW040 BECMG 2504/2506 33020KT TEMPO 2504/2514 3000 BLDU BECMG 2518/2520 29006KT

Waarnemingen en weersverwachtingen van meer dan 4000 vliegvelden (METAR en TAF).

De beschikbare stations zijn de gele en rode punten op de kaart.

Ga met uw muis naar het station om de naam te zien.

Klik dan om waarnemingen en weersverwachtingen te zien.

kaart wijzigen: klik op de groene knoppen met een zwart kruis om in te zoomen, op de groene knop met een streepje om uit te zoomen of op de groene pijlen voor aangrenzende kaarten.


METAR-TAF: